sensor_id;sensor_type;location;lat;lon;timestamp;P1;durP1;ratioP1;P2;durP2;ratioP2
5710;SDS011;61291;52.524;13.422;2022-12-29T00:01:48;55.27;;;51.57;;
5710;SDS011;61291;52.524;13.422;2022-12-29T00:04:14;57.10;;;53.20;;
5710;SDS011;61291;52.524;13.422;2022-12-29T00:06:40;54.27;;;50.77;;
5710;SDS011;61291;52.524;13.422;2022-12-29T00:09:06;54.63;;;51.00;;
5710;SDS011;61291;52.524;13.422;2022-12-29T00:11:31;55.20;;;50.93;;
5710;SDS011;61291;52.524;13.422;2022-12-29T00:13:57;54.20;;;50.50;;
5710;SDS011;61291;52.524;13.422;2022-12-29T00:16:41;55.67;;;51.57;;
5710;SDS011;61291;52.524;13.422;2022-12-29T00:19:08;54.40;;;50.70;;
5710;SDS011;61291;52.524;13.422;2022-12-29T00:21:53;55.37;;;51.43;;
5710;SDS011;61291;52.524;13.422;2022-12-29T00:24:37;53.93;;;50.27;;
5710;SDS011;61291;52.524;13.422;2022-12-29T00:27:21;53.77;;;50.17;;
5710;SDS011;61291;52.524;13.422;2022-12-29T00:30:08;54.77;;;51.07;;
5710;SDS011;61291;52.524;13.422;2022-12-29T00:33:14;55.30;;;51.60;;
5710;SDS011;61291;52.524;13.422;2022-12-29T00:36:11;56.53;;;52.27;;
5710;SDS011;61291;52.524;13.422;2022-12-29T00:38:41;55.97;;;52.20;;
5710;SDS011;61291;52.524;13.422;2022-12-29T00:41:30;54.60;;;50.90;;
5710;SDS011;61291;52.524;13.422;2022-12-29T00:44:14;55.10;;;51.40;;
5710;SDS011;61291;52.524;13.422;2022-12-29T00:46:40;56.13;;;52.23;;
5710;SDS011;61291;52.524;13.422;2022-12-29T00:49:07;56.53;;;52.53;;
5710;SDS011;61291;52.524;13.422;2022-12-29T00:51:53;50.45;;;46.97;;
5710;SDS011;61291;52.524;13.422;2022-12-29T00:54:19;57.00;;;53.03;;
5710;SDS011;61291;52.524;13.422;2022-12-29T00:56:46;57.53;;;53.53;;
5710;SDS011;61291;52.524;13.422;2022-12-29T00:59:15;57.30;;;53.40;;
5710;SDS011;61291;52.524;13.422;2022-12-29T01:01:41;56.13;;;52.47;;
5710;SDS011;61291;52.524;13.422;2022-12-29T01:04:08;55.33;;;51.73;;
5710;SDS011;61291;52.524;13.422;2022-12-29T01:06:34;55.33;;;51.73;;
5710;SDS011;61291;52.524;13.422;2022-12-29T01:09:02;56.47;;;52.57;;
5710;SDS011;61291;52.524;13.422;2022-12-29T01:11:46;55.30;;;51.43;;
5710;SDS011;61291;52.524;13.422;2022-12-29T01:14:12;55.40;;;51.60;;
5710;SDS011;61291;52.524;13.422;2022-12-29T01:16:37;57.40;;;53.30;;
5710;SDS011;61291;52.524;13.422;2022-12-29T01:19:03;56.40;;;52.70;;
5710;SDS011;61291;52.524;13.422;2022-12-29T01:21:29;56.27;;;52.57;;
5710;SDS011;61291;52.524;13.422;2022-12-29T01:23:55;56.43;;;52.70;;
5710;SDS011;61291;52.524;13.422;2022-12-29T01:26:20;56.53;;;52.83;;
5710;SDS011;61291;52.524;13.422;2022-12-29T01:28:46;57.27;;;53.33;;
5710;SDS011;61291;52.524;13.422;2022-12-29T01:31:12;56.33;;;52.73;;
5710;SDS011;61291;52.524;13.422;2022-12-29T01:33:39;57.40;;;53.50;;
5710;SDS011;61291;52.524;13.422;2022-12-29T01:36:06;54.90;;;51.40;;
5710;SDS011;61291;52.524;13.422;2022-12-29T01:38:35;55.20;;;51.60;;
5710;SDS011;61291;52.524;13.422;2022-12-29T01:41:01;56.20;;;52.10;;
5710;SDS011;61291;52.524;13.422;2022-12-29T01:46:25;55.53;;;51.53;;
5710;SDS011;61291;52.524;13.422;2022-12-29T01:48:57;55.80;;;52.00;;
5710;SDS011;61291;52.524;13.422;2022-12-29T01:51:30;55.57;;;51.77;;
5710;SDS011;61291;52.524;13.422;2022-12-29T01:53:58;54.87;;;51.13;;
5710;SDS011;61291;52.524;13.422;2022-12-29T01:56:26;56.00;;;51.90;;
5710;SDS011;61291;52.524;13.422;2022-12-29T01:58:54;57.03;;;53.33;;
5710;SDS011;61291;52.524;13.422;2022-12-29T02:01:25;59.47;;;55.57;;
5710;SDS011;61291;52.524;13.422;2022-12-29T02:03:51;47.85;;;44.75;;
5710;SDS011;61291;52.524;13.422;2022-12-29T02:06:18;58.70;;;54.80;;
5710;SDS011;61291;52.524;13.422;2022-12-29T02:08:47;57.87;;;54.17;;
5710;SDS011;61291;52.524;13.422;2022-12-29T02:11:16;57.80;;;53.80;;
5710;SDS011;61291;52.524;13.422;2022-12-29T02:13:42;58.27;;;54.40;;
5710;SDS011;61291;52.524;13.422;2022-12-29T02:16:12;58.00;;;54.10;;
5710;SDS011;61291;52.524;13.422;2022-12-29T02:24:35;56.77;;;52.97;;
5710;SDS011;61291;52.524;13.422;2022-12-29T02:32:38;58.70;;;54.87;;
5710;SDS011;61291;52.524;13.422;2022-12-29T02:35:35;58.60;;;54.60;;
5710;SDS011;61291;52.524;13.422;2022-12-29T02:38:32;59.83;;;55.53;;
5710;SDS011;61291;52.524;13.422;2022-12-29T02:41:22;59.17;;;55.07;;
5710;SDS011;61291;52.524;13.422;2022-12-29T02:44:15;56.00;;;52.37;;
5710;SDS011;61291;52.524;13.422;2022-12-29T02:46:51;58.80;;;54.90;;
5710;SDS011;61291;52.524;13.422;2022-12-29T02:52:15;59.33;;;55.47;;
5710;SDS011;61291;52.524;13.422;2022-12-29T02:54:42;59.03;;;55.13;;
5710;SDS011;61291;52.524;13.422;2022-12-29T02:59:45;62.83;;;58.40;;
5710;SDS011;61291;52.524;13.422;2022-12-29T03:02:29;58.93;;;54.93;;
5710;SDS011;61291;52.524;13.422;2022-12-29T03:13:32;59.13;;;55.20;;
5710;SDS011;61291;52.524;13.422;2022-12-29T03:16:32;59.80;;;56.00;;
5710;SDS011;61291;52.524;13.422;2022-12-29T03:21:44;57.30;;;53.33;;
5710;SDS011;61291;52.524;13.422;2022-12-29T03:24:35;60.73;;;56.73;;
5710;SDS011;61291;52.524;13.422;2022-12-29T03:27:05;61.93;;;57.70;;
5710;SDS011;61291;52.524;13.422;2022-12-29T03:29:35;61.80;;;57.60;;
5710;SDS011;61291;52.524;13.422;2022-12-29T03:32:04;61.03;;;56.10;;
5710;SDS011;61291;52.524;13.422;2022-12-29T03:34:30;61.47;;;57.43;;
5710;SDS011;61291;52.524;13.422;2022-12-29T03:37:02;62.70;;;58.40;;
5710;SDS011;61291;52.524;13.422;2022-12-29T03:39:34;60.60;;;56.20;;
5710;SDS011;61291;52.524;13.422;2022-12-29T03:42:01;61.20;;;56.70;;
5710;SDS011;61291;52.524;13.422;2022-12-29T03:44:35;59.73;;;55.80;;
5710;SDS011;61291;52.524;13.422;2022-12-29T03:47:03;62.60;;;58.30;;
5710;SDS011;61291;52.524;13.422;2022-12-29T03:49:29;62.37;;;58.10;;
5710;SDS011;61291;52.524;13.422;2022-12-29T03:51:54;62.33;;;58.03;;
5710;SDS011;61291;52.524;13.422;2022-12-29T03:54:21;64.23;;;59.93;;
5710;SDS011;61291;52.524;13.422;2022-12-29T03:56:46;60.63;;;56.63;;
5710;SDS011;61291;52.524;13.422;2022-12-29T03:59:12;62.93;;;58.63;;
5710;SDS011;61291;52.524;13.422;2022-12-29T04:01:37;59.20;;;55.00;;
5710;SDS011;61291;52.524;13.422;2022-12-29T04:04:03;59.83;;;55.73;;
5710;SDS011;61291;52.524;13.422;2022-12-29T04:06:28;58.87;;;54.87;;
5710;SDS011;61291;52.524;13.422;2022-12-29T04:08:54;59.43;;;55.23;;
5710;SDS011;61291;52.524;13.422;2022-12-29T04:11:20;60.30;;;55.83;;
5710;SDS011;61291;52.524;13.422;2022-12-29T04:13:46;59.87;;;55.77;;
5710;SDS011;61291;52.524;13.422;2022-12-29T04:16:11;58.70;;;54.60;;
5710;SDS011;61291;52.524;13.422;2022-12-29T04:18:37;58.07;;;54.17;;
5710;SDS011;61291;52.524;13.422;2022-12-29T04:21:02;58.03;;;54.00;;
5710;SDS011;61291;52.524;13.422;2022-12-29T04:23:30;58.77;;;54.67;;
5710;SDS011;61291;52.524;13.422;2022-12-29T04:25:57;59.60;;;54.80;;
5710;SDS011;61291;52.524;13.422;2022-12-29T04:28:23;57.83;;;53.93;;
5710;SDS011;61291;52.524;13.422;2022-12-29T04:30:49;58.33;;;54.23;;
5710;SDS011;61291;52.524;13.422;2022-12-29T04:33:15;58.40;;;54.40;;
5710;SDS011;61291;52.524;13.422;2022-12-29T04:35:41;57.77;;;53.67;;
5710;SDS011;61291;52.524;13.422;2022-12-29T04:38:08;58.23;;;54.00;;
5710;SDS011;61291;52.524;13.422;2022-12-29T04:40:33;59.13;;;54.77;;
5710;SDS011;61291;52.524;13.422;2022-12-29T04:42:58;57.70;;;53.60;;
5710;SDS011;61291;52.524;13.422;2022-12-29T04:45:24;59.83;;;55.53;;
5710;SDS011;61291;52.524;13.422;2022-12-29T04:47:49;59.00;;;54.90;;
5710;SDS011;61291;52.524;13.422;2022-12-29T04:50:15;57.60;;;53.60;;
5710;SDS011;61291;52.524;13.422;2022-12-29T04:52:40;57.80;;;53.57;;
5710;SDS011;61291;52.524;13.422;2022-12-29T04:55:06;58.60;;;54.50;;
5710;SDS011;61291;52.524;13.422;2022-12-29T04:57:32;60.27;;;55.87;;
5710;SDS011;61291;52.524;13.422;2022-12-29T04:59:58;58.87;;;54.87;;
5710;SDS011;61291;52.524;13.422;2022-12-29T05:02:23;57.10;;;53.20;;
5710;SDS011;61291;52.524;13.422;2022-12-29T05:04:49;59.00;;;54.70;;
5710;SDS011;61291;52.524;13.422;2022-12-29T05:07:14;58.27;;;54.10;;
5710;SDS011;61291;52.524;13.422;2022-12-29T05:09:40;57.97;;;53.87;;
5710;SDS011;61291;52.524;13.422;2022-12-29T05:12:06;60.63;;;56.50;;
5710;SDS011;61291;52.524;13.422;2022-12-29T05:14:31;59.67;;;55.33;;
5710;SDS011;61291;52.524;13.422;2022-12-29T05:16:57;62.27;;;58.17;;
5710;SDS011;61291;52.524;13.422;2022-12-29T05:19:22;58.10;;;54.00;;
5710;SDS011;61291;52.524;13.422;2022-12-29T05:21:47;60.73;;;56.53;;
5710;SDS011;61291;52.524;13.422;2022-12-29T05:24:13;62.77;;;58.57;;
5710;SDS011;61291;52.524;13.422;2022-12-29T05:26:40;60.60;;;56.30;;
5710;SDS011;61291;52.524;13.422;2022-12-29T05:29:05;62.27;;;57.63;;
5710;SDS011;61291;52.524;13.422;2022-12-29T05:31:31;59.20;;;54.90;;
5710;SDS011;61291;52.524;13.422;2022-12-29T05:33:56;60.93;;;56.63;;
5710;SDS011;61291;52.524;13.422;2022-12-29T05:36:22;65.10;;;60.53;;
5710;SDS011;61291;52.524;13.422;2022-12-29T05:38:48;59.50;;;55.40;;
5710;SDS011;61291;52.524;13.422;2022-12-29T05:41:13;62.63;;;58.17;;
5710;SDS011;61291;52.524;13.422;2022-12-29T05:43:39;63.20;;;58.33;;
5710;SDS011;61291;52.524;13.422;2022-12-29T05:46:04;63.60;;;59.40;;
5710;SDS011;61291;52.524;13.422;2022-12-29T05:48:30;59.40;;;55.40;;
5710;SDS011;61291;52.524;13.422;2022-12-29T05:50:55;61.73;;;57.07;;
5710;SDS011;61291;52.524;13.422;2022-12-29T05:53:21;59.37;;;55.43;;
5710;SDS011;61291;52.524;13.422;2022-12-29T05:55:46;57.70;;;53.67;;
5710;SDS011;61291;52.524;13.422;2022-12-29T05:58:12;56.57;;;52.67;;
5710;SDS011;61291;52.524;13.422;2022-12-29T06:00:39;61.30;;;57.10;;
5710;SDS011;61291;52.524;13.422;2022-12-29T06:03:05;64.80;;;60.40;;
5710;SDS011;61291;52.524;13.422;2022-12-29T06:05:30;59.40;;;55.40;;
5710;SDS011;61291;52.524;13.422;2022-12-29T06:07:56;60.77;;;56.47;;
5710;SDS011;61291;52.524;13.422;2022-12-29T06:10:21;62.90;;;58.50;;
5710;SDS011;61291;52.524;13.422;2022-12-29T06:12:46;61.33;;;57.23;;
5710;SDS011;61291;52.524;13.422;2022-12-29T06:15:12;50.03;;;46.53;;
5710;SDS011;61291;52.524;13.422;2022-12-29T06:17:38;59.50;;;55.40;;
5710;SDS011;61291;52.524;13.422;2022-12-29T06:20:04;62.07;;;57.83;;
5710;SDS011;61291;52.524;13.422;2022-12-29T06:22:30;64.43;;;59.80;;
5710;SDS011;61291;52.524;13.422;2022-12-29T06:24:56;63.50;;;59.20;;
5710;SDS011;61291;52.524;13.422;2022-12-29T06:27:21;62.80;;;58.60;;
5710;SDS011;61291;52.524;13.422;2022-12-29T06:29:47;61.93;;;58.03;;
5710;SDS011;61291;52.524;13.422;2022-12-29T06:32:12;63.10;;;58.60;;
5710;SDS011;61291;52.524;13.422;2022-12-29T06:34:38;57.83;;;54.03;;
5710;SDS011;61291;52.524;13.422;2022-12-29T06:37:03;64.40;;;59.97;;
5710;SDS011;61291;52.524;13.422;2022-12-29T06:39:29;62.13;;;58.03;;
5710;SDS011;61291;52.524;13.422;2022-12-29T06:41:54;64.33;;;60.10;;
5710;SDS011;61291;52.524;13.422;2022-12-29T06:44:20;60.93;;;56.70;;
5710;SDS011;61291;52.524;13.422;2022-12-29T06:46:46;61.58;;;57.35;;
5710;SDS011;61291;52.524;13.422;2022-12-29T06:49:12;58.00;;;54.20;;
5710;SDS011;61291;52.524;13.422;2022-12-29T06:51:37;59.87;;;55.97;;
5710;SDS011;61291;52.524;13.422;2022-12-29T06:54:03;60.87;;;57.00;;
5710;SDS011;61291;52.524;13.422;2022-12-29T06:56:28;60.63;;;56.83;;
5710;SDS011;61291;52.524;13.422;2022-12-29T06:58:54;59.20;;;55.20;;
5710;SDS011;61291;52.524;13.422;2022-12-29T07:01:19;65.23;;;61.13;;
5710;SDS011;61291;52.524;13.422;2022-12-29T07:03:45;62.03;;;58.17;;
5710;SDS011;61291;52.524;13.422;2022-12-29T07:06:10;60.70;;;56.90;;
5710;SDS011;61291;52.524;13.422;2022-12-29T07:08:35;64.37;;;60.13;;
5710;SDS011;61291;52.524;13.422;2022-12-29T07:11:01;62.87;;;58.90;;
5710;SDS011;61291;52.524;13.422;2022-12-29T07:13:26;63.17;;;58.83;;
5710;SDS011;61291;52.524;13.422;2022-12-29T07:15:52;62.60;;;58.60;;
5710;SDS011;61291;52.524;13.422;2022-12-29T07:18:17;62.40;;;58.40;;
5710;SDS011;61291;52.524;13.422;2022-12-29T07:20:43;62.27;;;58.07;;
5710;SDS011;61291;52.524;13.422;2022-12-29T07:23:09;62.70;;;58.50;;
5710;SDS011;61291;52.524;13.422;2022-12-29T07:25:34;64.10;;;60.00;;
5710;SDS011;61291;52.524;13.422;2022-12-29T07:28:00;60.33;;;56.20;;
5710;SDS011;61291;52.524;13.422;2022-12-29T07:30:27;63.87;;;59.67;;
5710;SDS011;61291;52.524;13.422;2022-12-29T07:32:52;63.30;;;59.00;;
5710;SDS011;61291;52.524;13.422;2022-12-29T07:35:18;56.90;;;53.07;;
5710;SDS011;61291;52.524;13.422;2022-12-29T07:37:43;56.47;;;52.87;;
5710;SDS011;61291;52.524;13.422;2022-12-29T07:40:09;60.97;;;57.00;;
5710;SDS011;61291;52.524;13.422;2022-12-29T07:42:34;63.97;;;59.67;;
5710;SDS011;61291;52.524;13.422;2022-12-29T07:45:00;63.07;;;58.83;;
5710;SDS011;61291;52.524;13.422;2022-12-29T07:47:26;60.23;;;55.93;;
5710;SDS011;61291;52.524;13.422;2022-12-29T07:49:51;62.03;;;57.87;;
5710;SDS011;61291;52.524;13.422;2022-12-29T07:52:17;62.93;;;58.83;;
5710;SDS011;61291;52.524;13.422;2022-12-29T07:54:42;61.33;;;57.33;;
5710;SDS011;61291;52.524;13.422;2022-12-29T07:57:08;61.30;;;57.20;;
5710;SDS011;61291;52.524;13.422;2022-12-29T07:59:33;64.87;;;60.77;;
5710;SDS011;61291;52.524;13.422;2022-12-29T08:01:59;62.40;;;58.30;;
5710;SDS011;61291;52.524;13.422;2022-12-29T08:04:24;66.00;;;61.43;;
5710;SDS011;61291;52.524;13.422;2022-12-29T08:06:50;60.40;;;56.40;;
5710;SDS011;61291;52.524;13.422;2022-12-29T08:09:16;64.80;;;60.30;;
5710;SDS011;61291;52.524;13.422;2022-12-29T08:11:41;59.83;;;55.83;;
5710;SDS011;61291;52.524;13.422;2022-12-29T08:14:08;61.90;;;57.60;;
5710;SDS011;61291;52.524;13.422;2022-12-29T08:16:33;57.50;;;53.60;;
5710;SDS011;61291;52.524;13.422;2022-12-29T08:18:59;60.60;;;56.80;;
5710;SDS011;61291;52.524;13.422;2022-12-29T08:21:25;60.57;;;56.67;;
5710;SDS011;61291;52.524;13.422;2022-12-29T08:23:52;64.10;;;60.00;;
5710;SDS011;61291;52.524;13.422;2022-12-29T08:26:18;67.97;;;63.63;;
5710;SDS011;61291;52.524;13.422;2022-12-29T08:28:43;58.47;;;54.47;;
5710;SDS011;61291;52.524;13.422;2022-12-29T08:31:09;59.10;;;54.80;;
5710;SDS011;61291;52.524;13.422;2022-12-29T08:33:35;63.20;;;58.97;;
5710;SDS011;61291;52.524;13.422;2022-12-29T08:36:01;59.37;;;55.30;;
5710;SDS011;61291;52.524;13.422;2022-12-29T08:38:28;65.23;;;60.73;;
5710;SDS011;61291;52.524;13.422;2022-12-29T08:40:55;65.27;;;60.87;;
5710;SDS011;61291;52.524;13.422;2022-12-29T08:43:21;66.13;;;61.10;;
5710;SDS011;61291;52.524;13.422;2022-12-29T08:45:46;59.00;;;54.90;;
5710;SDS011;61291;52.524;13.422;2022-12-29T08:48:12;60.83;;;56.70;;
5710;SDS011;61291;52.524;13.422;2022-12-29T08:50:37;60.53;;;56.53;;
5710;SDS011;61291;52.524;13.422;2022-12-29T08:53:03;58.77;;;54.90;;
5710;SDS011;61291;52.524;13.422;2022-12-29T08:55:28;56.20;;;52.40;;
5710;SDS011;61291;52.524;13.422;2022-12-29T08:57:54;61.77;;;57.57;;
5710;SDS011;61291;52.524;13.422;2022-12-29T09:00:19;57.50;;;53.80;;
5710;SDS011;61291;52.524;13.422;2022-12-29T09:02:45;59.00;;;55.30;;
5710;SDS011;61291;52.524;13.422;2022-12-29T09:05:11;61.27;;;57.27;;
5710;SDS011;61291;52.524;13.422;2022-12-29T09:07:36;59.53;;;55.07;;
5710;SDS011;61291;52.524;13.422;2022-12-29T09:10:02;55.20;;;51.60;;
5710;SDS011;61291;52.524;13.422;2022-12-29T09:12:28;56.00;;;52.30;;
5710;SDS011;61291;52.524;13.422;2022-12-29T09:14:53;52.63;;;49.23;;
5710;SDS011;61291;52.524;13.422;2022-12-29T09:17:19;56.90;;;52.80;;
5710;SDS011;61291;52.524;13.422;2022-12-29T09:20:03;54.90;;;51.30;;
5710;SDS011;61291;52.524;13.422;2022-12-29T09:22:29;52.27;;;48.77;;
5710;SDS011;61291;52.524;13.422;2022-12-29T09:24:55;56.83;;;52.67;;
5710;SDS011;61291;52.524;13.422;2022-12-29T09:27:20;57.20;;;53.30;;
5710;SDS011;61291;52.524;13.422;2022-12-29T09:29:46;56.70;;;52.97;;
5710;SDS011;61291;52.524;13.422;2022-12-29T09:32:11;52.60;;;49.10;;
5710;SDS011;61291;52.524;13.422;2022-12-29T09:34:37;60.23;;;56.13;;
5710;SDS011;61291;52.524;13.422;2022-12-29T09:37:02;59.90;;;55.90;;
5710;SDS011;61291;52.524;13.422;2022-12-29T09:39:28;63.23;;;57.17;;
5710;SDS011;61291;52.524;13.422;2022-12-29T09:41:59;55.03;;;51.47;;
5710;SDS011;61291;52.524;13.422;2022-12-29T09:44:48;60.77;;;56.33;;
5710;SDS011;61291;52.524;13.422;2022-12-29T09:47:20;52.00;;;48.50;;
5710;SDS011;61291;52.524;13.422;2022-12-29T09:52:42;56.13;;;52.30;;
5710;SDS011;61291;52.524;13.422;2022-12-29T09:55:16;58.23;;;54.13;;
5710;SDS011;61291;52.524;13.422;2022-12-29T09:57:46;56.00;;;51.90;;
5710;SDS011;61291;52.524;13.422;2022-12-29T10:00:22;54.37;;;50.20;;
5710;SDS011;61291;52.524;13.422;2022-12-29T10:02:52;55.17;;;50.70;;
5710;SDS011;61291;52.524;13.422;2022-12-29T10:08:25;52.93;;;49.30;;
5710;SDS011;61291;52.524;13.422;2022-12-29T10:11:06;53.50;;;49.90;;
5710;SDS011;61291;52.524;13.422;2022-12-29T10:13:56;56.77;;;52.77;;
5710;SDS011;61291;52.524;13.422;2022-12-29T10:16:39;52.23;;;48.53;;
5710;SDS011;61291;52.524;13.422;2022-12-29T10:19:30;56.00;;;51.70;;
5710;SDS011;61291;52.524;13.422;2022-12-29T10:25:12;56.50;;;52.53;;
5710;SDS011;61291;52.524;13.422;2022-12-29T10:27:42;57.00;;;52.73;;
5710;SDS011;61291;52.524;13.422;2022-12-29T10:30:11;56.63;;;52.80;;
5710;SDS011;61291;52.524;13.422;2022-12-29T10:32:39;59.20;;;54.93;;
5710;SDS011;61291;52.524;13.422;2022-12-29T10:35:29;60.30;;;56.03;;
5710;SDS011;61291;52.524;13.422;2022-12-29T10:38:03;57.40;;;53.40;;
5710;SDS011;61291;52.524;13.422;2022-12-29T10:40:46;57.23;;;52.70;;
5710;SDS011;61291;52.524;13.422;2022-12-29T10:43:26;56.53;;;52.33;;
5710;SDS011;61291;52.524;13.422;2022-12-29T10:46:02;55.53;;;51.53;;
5710;SDS011;61291;52.524;13.422;2022-12-29T10:48:32;53.70;;;50.00;;
5710;SDS011;61291;52.524;13.422;2022-12-29T10:51:00;47.85;;;43.85;;
5710;SDS011;61291;52.524;13.422;2022-12-29T10:53:37;53.17;;;49.03;;
5710;SDS011;61291;52.524;13.422;2022-12-29T10:56:13;53.90;;;49.90;;
5710;SDS011;61291;52.524;13.422;2022-12-29T10:59:01;52.70;;;48.90;;
5710;SDS011;61291;52.524;13.422;2022-12-29T11:01:36;55.43;;;51.63;;
5710;SDS011;61291;52.524;13.422;2022-12-29T11:04:28;56.87;;;52.60;;
5710;SDS011;61291;52.524;13.422;2022-12-29T11:07:07;54.00;;;49.60;;
5710;SDS011;61291;52.524;13.422;2022-12-29T11:09:34;53.60;;;49.90;;
5710;SDS011;61291;52.524;13.422;2022-12-29T11:17:42;54.30;;;50.47;;
5710;SDS011;61291;52.524;13.422;2022-12-29T11:20:28;54.63;;;51.03;;
5710;SDS011;61291;52.524;13.422;2022-12-29T11:22:56;52.73;;;49.03;;
5710;SDS011;61291;52.524;13.422;2022-12-29T11:25:22;52.60;;;49.00;;
5710;SDS011;61291;52.524;13.422;2022-12-29T11:27:58;52.90;;;49.40;;
5710;SDS011;61291;52.524;13.422;2022-12-29T11:30:27;52.70;;;49.10;;
5710;SDS011;61291;52.524;13.422;2022-12-29T11:32:55;56.87;;;52.50;;
5710;SDS011;61291;52.524;13.422;2022-12-29T11:38:00;53.83;;;49.90;;
5710;SDS011;61291;52.524;13.422;2022-12-29T11:40:27;52.00;;;48.40;;
5710;SDS011;61291;52.524;13.422;2022-12-29T11:43:02;53.20;;;49.60;;
5710;SDS011;61291;52.524;13.422;2022-12-29T11:45:38;54.90;;;50.83;;
5710;SDS011;61291;52.524;13.422;2022-12-29T11:48:17;58.07;;;54.10;;
5710;SDS011;61291;52.524;13.422;2022-12-29T11:50:54;56.97;;;53.07;;
5710;SDS011;61291;52.524;13.422;2022-12-29T11:53:37;56.47;;;52.57;;
5710;SDS011;61291;52.524;13.422;2022-12-29T11:56:12;56.30;;;52.20;;
5710;SDS011;61291;52.524;13.422;2022-12-29T11:58:40;55.30;;;51.50;;
5710;SDS011;61291;52.524;13.422;2022-12-29T12:01:09;56.70;;;52.70;;
5710;SDS011;61291;52.524;13.422;2022-12-29T12:03:47;74.70;;;61.00;;
5710;SDS011;61291;52.524;13.422;2022-12-29T12:06:21;52.03;;;48.53;;
5710;SDS011;61291;52.524;13.422;2022-12-29T12:08:56;53.83;;;50.23;;
5710;SDS011;61291;52.524;13.422;2022-12-29T12:11:30;55.47;;;51.47;;
5710;SDS011;61291;52.524;13.422;2022-12-29T12:14:06;43.03;;;39.92;;
5710;SDS011;61291;52.524;13.422;2022-12-29T12:16:38;54.40;;;50.60;;
5710;SDS011;61291;52.524;13.422;2022-12-29T12:22:10;56.90;;;52.90;;
5710;SDS011;61291;52.524;13.422;2022-12-29T12:24:52;55.37;;;51.67;;
5710;SDS011;61291;52.524;13.422;2022-12-29T12:27:36;56.77;;;52.77;;
5710;SDS011;61291;52.524;13.422;2022-12-29T12:30:10;54.83;;;51.03;;
5710;SDS011;61291;52.524;13.422;2022-12-29T12:32:53;54.87;;;51.07;;
5710;SDS011;61291;52.524;13.422;2022-12-29T12:35:49;55.60;;;51.80;;
5710;SDS011;61291;52.524;13.422;2022-12-29T12:38:51;56.10;;;52.00;;
5710;SDS011;61291;52.524;13.422;2022-12-29T12:41:28;56.57;;;52.57;;
5710;SDS011;61291;52.524;13.422;2022-12-29T12:47:04;56.23;;;51.93;;
5710;SDS011;61291;52.524;13.422;2022-12-29T12:50:19;55.17;;;50.97;;
5710;SDS011;61291;52.524;13.422;2022-12-29T12:58:18;53.03;;;49.23;;
5710;SDS011;61291;52.524;13.422;2022-12-29T13:00:54;57.10;;;53.20;;
5710;SDS011;61291;52.524;13.422;2022-12-29T13:03:49;57.07;;;53.07;;
5710;SDS011;61291;52.524;13.422;2022-12-29T13:06:49;56.83;;;53.03;;
5710;SDS011;61291;52.524;13.422;2022-12-29T13:09:45;58.37;;;54.37;;
5710;SDS011;61291;52.524;13.422;2022-12-29T13:12:28;55.87;;;51.97;;
5710;SDS011;61291;52.524;13.422;2022-12-29T13:17:43;59.97;;;55.97;;
5710;SDS011;61291;52.524;13.422;2022-12-29T13:20:20;56.80;;;52.90;;
5710;SDS011;61291;52.524;13.422;2022-12-29T13:23:16;58.07;;;53.80;;
5710;SDS011;61291;52.524;13.422;2022-12-29T13:26:03;57.47;;;53.50;;
5710;SDS011;61291;52.524;13.422;2022-12-29T13:37:01;59.43;;;55.10;;
5710;SDS011;61291;52.524;13.422;2022-12-29T13:39:51;56.83;;;52.93;;
5710;SDS011;61291;52.524;13.422;2022-12-29T13:42:20;53.33;;;49.83;;
5710;SDS011;61291;52.524;13.422;2022-12-29T13:45:00;58.40;;;54.40;;
5710;SDS011;61291;52.524;13.422;2022-12-29T13:47:31;60.90;;;56.77;;
5710;SDS011;61291;52.524;13.422;2022-12-29T13:50:02;55.50;;;51.80;;
5710;SDS011;61291;52.524;13.422;2022-12-29T13:55:08;55.27;;;51.67;;
5710;SDS011;61291;52.524;13.422;2022-12-29T13:57:52;54.40;;;50.70;;
5710;SDS011;61291;52.524;13.422;2022-12-29T14:00:31;60.23;;;56.13;;
5710;SDS011;61291;52.524;13.422;2022-12-29T14:03:20;59.43;;;55.23;;
5710;SDS011;61291;52.524;13.422;2022-12-29T14:06:14;54.30;;;50.70;;
5710;SDS011;61291;52.524;13.422;2022-12-29T14:08:39;57.83;;;53.60;;
5710;SDS011;61291;52.524;13.422;2022-12-29T14:11:07;54.67;;;51.17;;
5710;SDS011;61291;52.524;13.422;2022-12-29T14:13:39;59.37;;;55.23;;
5710;SDS011;61291;52.524;13.422;2022-12-29T14:16:07;52.60;;;49.07;;
5710;SDS011;61291;52.524;13.422;2022-12-29T14:18:50;58.20;;;54.40;;
5710;SDS011;61291;52.524;13.422;2022-12-29T14:21:19;59.83;;;55.10;;
5710;SDS011;61291;52.524;13.422;2022-12-29T14:23:48;56.63;;;52.87;;
5710;SDS011;61291;52.524;13.422;2022-12-29T14:28:56;55.83;;;51.93;;
5710;SDS011;61291;52.524;13.422;2022-12-29T14:31:39;56.33;;;52.60;;
5710;SDS011;61291;52.524;13.422;2022-12-29T14:36:35;56.47;;;52.77;;
5710;SDS011;61291;52.524;13.422;2022-12-29T14:39:25;60.27;;;55.97;;
5710;SDS011;61291;52.524;13.422;2022-12-29T14:42:04;58.00;;;54.20;;
5710;SDS011;61291;52.524;13.422;2022-12-29T14:44:30;55.60;;;51.70;;
5710;SDS011;61291;52.524;13.422;2022-12-29T14:46:58;54.47;;;50.90;;
5710;SDS011;61291;52.524;13.422;2022-12-29T14:49:29;51.30;;;47.90;;
5710;SDS011;61291;52.524;13.422;2022-12-29T14:52:07;54.40;;;50.70;;
5710;SDS011;61291;52.524;13.422;2022-12-29T14:57:07;54.23;;;50.50;;
5710;SDS011;61291;52.524;13.422;2022-12-29T14:59:46;52.10;;;48.43;;
5710;SDS011;61291;52.524;13.422;2022-12-29T15:02:19;52.03;;;48.25;;
5710;SDS011;61291;52.524;13.422;2022-12-29T15:04:47;51.60;;;48.10;;
5710;SDS011;61291;52.524;13.422;2022-12-29T15:07:13;51.70;;;48.10;;
5710;SDS011;61291;52.524;13.422;2022-12-29T15:09:43;51.00;;;47.50;;
5710;SDS011;61291;52.524;13.422;2022-12-29T15:12:22;52.40;;;48.60;;
5710;SDS011;61291;52.524;13.422;2022-12-29T15:15:02;48.33;;;45.03;;
5710;SDS011;61291;52.524;13.422;2022-12-29T15:17:43;48.40;;;45.20;;
5710;SDS011;61291;52.524;13.422;2022-12-29T15:23:03;50.17;;;46.33;;
5710;SDS011;61291;52.524;13.422;2022-12-29T15:25:48;49.67;;;46.47;;
5710;SDS011;61291;52.524;13.422;2022-12-29T15:28:22;46.73;;;43.73;;
5710;SDS011;61291;52.524;13.422;2022-12-29T15:33:21;47.30;;;44.10;;
5710;SDS011;61291;52.524;13.422;2022-12-29T15:35:51;53.10;;;49.00;;
5710;SDS011;61291;52.524;13.422;2022-12-29T15:38:25;52.70;;;48.67;;
5710;SDS011;61291;52.524;13.422;2022-12-29T15:41:15;50.80;;;47.40;;
5710;SDS011;61291;52.524;13.422;2022-12-29T15:44:00;52.33;;;49.03;;
5710;SDS011;61291;52.524;13.422;2022-12-29T15:46:37;54.50;;;50.60;;
5710;SDS011;61291;52.524;13.422;2022-12-29T15:49:07;51.07;;;47.57;;
5710;SDS011;61291;52.524;13.422;2022-12-29T15:51:34;49.63;;;46.20;;
5710;SDS011;61291;52.524;13.422;2022-12-29T15:54:02;48.87;;;45.77;;
5710;SDS011;61291;52.524;13.422;2022-12-29T15:56:29;49.23;;;45.63;;
5710;SDS011;61291;52.524;13.422;2022-12-29T15:58:55;47.63;;;44.53;;
5710;SDS011;61291;52.524;13.422;2022-12-29T16:01:29;50.93;;;47.47;;
5710;SDS011;61291;52.524;13.422;2022-12-29T16:04:01;50.07;;;46.57;;
5710;SDS011;61291;52.524;13.422;2022-12-29T16:09:05;51.13;;;46.80;;
5710;SDS011;61291;52.524;13.422;2022-12-29T16:11:38;51.47;;;47.37;;
5710;SDS011;61291;52.524;13.422;2022-12-29T16:14:09;49.20;;;45.80;;